sensor_id;sensor_type;location;lat;lon;timestamp;P1;durP1;ratioP1;P2;durP2;ratioP2
40256;SDS011;25977;45.462;9.210;2023-12-22T00:00:38;7.55;;;4.32;;
40256;SDS011;25977;45.462;9.210;2023-12-22T00:03:03;4.82;;;3.83;;
40256;SDS011;25977;45.462;9.210;2023-12-22T00:05:29;3.85;;;3.20;;
40256;SDS011;25977;45.462;9.210;2023-12-22T00:07:55;5.03;;;3.92;;
40256;SDS011;25977;45.462;9.210;2023-12-22T00:10:20;4.25;;;3.08;;
40256;SDS011;25977;45.462;9.210;2023-12-22T00:12:46;5.50;;;3.97;;
40256;SDS011;25977;45.462;9.210;2023-12-22T00:15:12;6.28;;;3.47;;
40256;SDS011;25977;45.462;9.210;2023-12-22T00:17:38;4.43;;;3.45;;
40256;SDS011;25977;45.462;9.210;2023-12-22T00:20:03;3.83;;;3.15;;
40256;SDS011;25977;45.462;9.210;2023-12-22T00:22:29;4.75;;;3.85;;
40256;SDS011;25977;45.462;9.210;2023-12-22T00:24:55;6.07;;;4.40;;
40256;SDS011;25977;45.462;9.210;2023-12-22T00:27:21;5.32;;;3.85;;
40256;SDS011;25977;45.462;9.210;2023-12-22T00:29:47;14.20;;;3.95;;
40256;SDS011;25977;45.462;9.210;2023-12-22T00:32:12;6.80;;;4.35;;
40256;SDS011;25977;45.462;9.210;2023-12-22T00:34:38;4.13;;;3.72;;
40256;SDS011;25977;45.462;9.210;2023-12-22T00:37:04;4.38;;;3.97;;
40256;SDS011;25977;45.462;9.210;2023-12-22T00:39:30;4.63;;;3.60;;
40256;SDS011;25977;45.462;9.210;2023-12-22T00:41:56;5.57;;;4.15;;
40256;SDS011;25977;45.462;9.210;2023-12-22T00:44:22;7.40;;;4.50;;
40256;SDS011;25977;45.462;9.210;2023-12-22T00:46:48;10.27;;;5.22;;
40256;SDS011;25977;45.462;9.210;2023-12-22T00:49:14;4.43;;;4.03;;
40256;SDS011;25977;45.462;9.210;2023-12-22T00:51:39;5.88;;;4.18;;
40256;SDS011;25977;45.462;9.210;2023-12-22T00:54:05;5.72;;;4.97;;
40256;SDS011;25977;45.462;9.210;2023-12-22T00:56:31;5.97;;;4.40;;
40256;SDS011;25977;45.462;9.210;2023-12-22T00:58:56;5.10;;;4.30;;
40256;SDS011;25977;45.462;9.210;2023-12-22T01:01:22;4.18;;;3.78;;
40256;SDS011;25977;45.462;9.210;2023-12-22T01:03:48;5.40;;;4.10;;
40256;SDS011;25977;45.462;9.210;2023-12-22T01:06:13;7.07;;;4.60;;
40256;SDS011;25977;45.462;9.210;2023-12-22T01:08:40;8.60;;;3.83;;
40256;SDS011;25977;45.462;9.210;2023-12-22T01:11:05;6.35;;;4.00;;
40256;SDS011;25977;45.462;9.210;2023-12-22T01:13:31;5.35;;;4.53;;
40256;SDS011;25977;45.462;9.210;2023-12-22T01:15:57;7.07;;;4.70;;
40256;SDS011;25977;45.462;9.210;2023-12-22T01:18:22;6.20;;;5.28;;
40256;SDS011;25977;45.462;9.210;2023-12-22T01:20:50;12.18;;;4.43;;
40256;SDS011;25977;45.462;9.210;2023-12-22T01:23:15;10.88;;;4.93;;
40256;SDS011;25977;45.462;9.210;2023-12-22T01:25:41;7.22;;;4.35;;
40256;SDS011;25977;45.462;9.210;2023-12-22T01:28:07;5.07;;;4.68;;
40256;SDS011;25977;45.462;9.210;2023-12-22T01:30:32;5.10;;;4.53;;
40256;SDS011;25977;45.462;9.210;2023-12-22T01:32:58;4.97;;;4.50;;
40256;SDS011;25977;45.462;9.210;2023-12-22T01:35:24;8.00;;;5.65;;
40256;SDS011;25977;45.462;9.210;2023-12-22T01:37:49;6.30;;;5.13;;
40256;SDS011;25977;45.462;9.210;2023-12-22T01:40:16;7.63;;;6.25;;
40256;SDS011;25977;45.462;9.210;2023-12-22T01:42:42;5.72;;;5.18;;
40256;SDS011;25977;45.462;9.210;2023-12-22T01:45:07;4.88;;;4.40;;
40256;SDS011;25977;45.462;9.210;2023-12-22T01:47:33;8.10;;;4.75;;
40256;SDS011;25977;45.462;9.210;2023-12-22T01:50:00;6.65;;;5.00;;
40256;SDS011;25977;45.462;9.210;2023-12-22T01:52:26;5.63;;;5.07;;
40256;SDS011;25977;45.462;9.210;2023-12-22T01:54:52;7.28;;;5.20;;
40256;SDS011;25977;45.462;9.210;2023-12-22T01:57:20;6.53;;;5.85;;
40256;SDS011;25977;45.462;9.210;2023-12-22T01:59:46;8.02;;;6.07;;
40256;SDS011;25977;45.462;9.210;2023-12-22T02:02:13;9.48;;;6.13;;
40256;SDS011;25977;45.462;9.210;2023-12-22T02:04:39;12.07;;;7.05;;
40256;SDS011;25977;45.462;9.210;2023-12-22T02:07:05;11.40;;;6.50;;
40256;SDS011;25977;45.462;9.210;2023-12-22T02:09:34;8.13;;;7.30;;
40256;SDS011;25977;45.462;9.210;2023-12-22T02:12:00;7.30;;;5.93;;
40256;SDS011;25977;45.462;9.210;2023-12-22T02:14:27;10.60;;;6.45;;
40256;SDS011;25977;45.462;9.210;2023-12-22T02:16:59;7.32;;;6.38;;
40256;SDS011;25977;45.462;9.210;2023-12-22T02:19:51;8.13;;;5.93;;
40256;SDS011;25977;45.462;9.210;2023-12-22T02:22:18;11.25;;;6.30;;
40256;SDS011;25977;45.462;9.210;2023-12-22T02:24:43;7.75;;;6.38;;
40256;SDS011;25977;45.462;9.210;2023-12-22T02:27:21;7.55;;;5.57;;
40256;SDS011;25977;45.462;9.210;2023-12-22T02:30:09;9.25;;;7.07;;
40256;SDS011;25977;45.462;9.210;2023-12-22T02:32:42;7.10;;;6.22;;
40256;SDS011;25977;45.462;9.210;2023-12-22T02:35:13;9.77;;;6.25;;
40256;SDS011;25977;45.462;9.210;2023-12-22T02:37:42;8.35;;;7.00;;
40256;SDS011;25977;45.462;9.210;2023-12-22T02:40:10;7.85;;;6.47;;
40256;SDS011;25977;45.462;9.210;2023-12-22T02:42:36;9.32;;;6.30;;
40256;SDS011;25977;45.462;9.210;2023-12-22T02:45:03;7.28;;;6.57;;
40256;SDS011;25977;45.462;9.210;2023-12-22T02:47:30;9.80;;;6.68;;
40256;SDS011;25977;45.462;9.210;2023-12-22T02:49:57;10.85;;;6.97;;
40256;SDS011;25977;45.462;9.210;2023-12-22T02:52:24;8.18;;;6.95;;
40256;SDS011;25977;45.462;9.210;2023-12-22T02:54:49;9.40;;;6.40;;
40256;SDS011;25977;45.462;9.210;2023-12-22T02:57:15;8.77;;;7.07;;
40256;SDS011;25977;45.462;9.210;2023-12-22T02:59:41;7.75;;;6.95;;
40256;SDS011;25977;45.462;9.210;2023-12-22T03:02:06;7.10;;;6.45;;
40256;SDS011;25977;45.462;9.210;2023-12-22T03:04:32;6.38;;;5.78;;
40256;SDS011;25977;45.462;9.210;2023-12-22T03:06:58;9.93;;;6.20;;
40256;SDS011;25977;45.462;9.210;2023-12-22T03:09:23;8.77;;;6.55;;
40256;SDS011;25977;45.462;9.210;2023-12-22T03:11:49;10.73;;;7.47;;
40256;SDS011;25977;45.462;9.210;2023-12-22T03:14:16;8.30;;;5.15;;
40256;SDS011;25977;45.462;9.210;2023-12-22T03:16:42;8.00;;;6.85;;
40256;SDS011;25977;45.462;9.210;2023-12-22T03:19:08;9.07;;;5.60;;
40256;SDS011;25977;45.462;9.210;2023-12-22T03:21:33;7.35;;;6.43;;
40256;SDS011;25977;45.462;9.210;2023-12-22T03:23:59;8.40;;;6.30;;
40256;SDS011;25977;45.462;9.210;2023-12-22T03:26:28;9.63;;;5.85;;
40256;SDS011;25977;45.462;9.210;2023-12-22T03:28:54;9.63;;;6.35;;
40256;SDS011;25977;45.462;9.210;2023-12-22T03:31:19;6.63;;;5.90;;
40256;SDS011;25977;45.462;9.210;2023-12-22T03:33:45;8.68;;;6.10;;
40256;SDS011;25977;45.462;9.210;2023-12-22T03:36:11;7.15;;;4.90;;
40256;SDS011;25977;45.462;9.210;2023-12-22T03:38:37;6.68;;;5.35;;
40256;SDS011;25977;45.462;9.210;2023-12-22T03:41:02;8.10;;;6.03;;
40256;SDS011;25977;45.462;9.210;2023-12-22T03:43:28;8.23;;;5.38;;
40256;SDS011;25977;45.462;9.210;2023-12-22T03:45:56;8.80;;;6.20;;
40256;SDS011;25977;45.462;9.210;2023-12-22T03:48:22;6.22;;;5.60;;
40256;SDS011;25977;45.462;9.210;2023-12-22T03:50:47;6.47;;;5.65;;
40256;SDS011;25977;45.462;9.210;2023-12-22T03:53:13;5.75;;;5.07;;
40256;SDS011;25977;45.462;9.210;2023-12-22T03:55:38;6.80;;;4.95;;
40256;SDS011;25977;45.462;9.210;2023-12-22T03:58:04;12.13;;;4.85;;
40256;SDS011;25977;45.462;9.210;2023-12-22T04:00:32;7.05;;;5.32;;
40256;SDS011;25977;45.462;9.210;2023-12-22T04:02:58;5.15;;;4.53;;
40256;SDS011;25977;45.462;9.210;2023-12-22T04:05:24;5.97;;;5.18;;
40256;SDS011;25977;45.462;9.210;2023-12-22T04:07:50;7.18;;;4.53;;
40256;SDS011;25977;45.462;9.210;2023-12-22T04:10:18;5.32;;;4.55;;
40256;SDS011;25977;45.462;9.210;2023-12-22T04:12:44;8.10;;;5.80;;
40256;SDS011;25977;45.462;9.210;2023-12-22T04:15:10;6.32;;;4.90;;
40256;SDS011;25977;45.462;9.210;2023-12-22T04:17:36;4.88;;;4.00;;
40256;SDS011;25977;45.462;9.210;2023-12-22T04:20:01;6.88;;;4.63;;
40256;SDS011;25977;45.462;9.210;2023-12-22T04:22:27;3.88;;;3.10;;
40256;SDS011;25977;45.462;9.210;2023-12-22T04:24:53;3.22;;;2.92;;
40256;SDS011;25977;45.462;9.210;2023-12-22T04:27:18;3.13;;;2.83;;
40256;SDS011;25977;45.462;9.210;2023-12-22T04:29:44;3.67;;;2.65;;
40256;SDS011;25977;45.462;9.210;2023-12-22T04:32:10;3.35;;;3.13;;
40256;SDS011;25977;45.462;9.210;2023-12-22T04:34:35;4.32;;;3.42;;
40256;SDS011;25977;45.462;9.210;2023-12-22T04:37:01;3.10;;;2.80;;
40256;SDS011;25977;45.462;9.210;2023-12-22T04:39:27;1.75;;;1.65;;
40256;SDS011;25977;45.462;9.210;2023-12-22T04:41:52;6.10;;;2.72;;
40256;SDS011;25977;45.462;9.210;2023-12-22T04:44:18;2.70;;;2.25;;
40256;SDS011;25977;45.462;9.210;2023-12-22T04:46:44;2.17;;;1.98;;
40256;SDS011;25977;45.462;9.210;2023-12-22T04:49:09;5.40;;;2.30;;
40256;SDS011;25977;45.462;9.210;2023-12-22T04:51:35;2.22;;;2.03;;
40256;SDS011;25977;45.462;9.210;2023-12-22T04:54:00;2.35;;;2.15;;
40256;SDS011;25977;45.462;9.210;2023-12-22T04:56:26;2.08;;;1.90;;
40256;SDS011;25977;45.462;9.210;2023-12-22T04:58:52;3.45;;;2.10;;
40256;SDS011;25977;45.462;9.210;2023-12-22T05:01:17;3.13;;;2.22;;
40256;SDS011;25977;45.462;9.210;2023-12-22T05:03:44;3.20;;;2.83;;
40256;SDS011;25977;45.462;9.210;2023-12-22T05:06:10;2.70;;;2.45;;
40256;SDS011;25977;45.462;9.210;2023-12-22T05:08:35;1.92;;;1.65;;
40256;SDS011;25977;45.462;9.210;2023-12-22T05:11:01;2.17;;;1.75;;
40256;SDS011;25977;45.462;9.210;2023-12-22T05:13:27;3.33;;;1.77;;
40256;SDS011;25977;45.462;9.210;2023-12-22T05:15:52;2.28;;;1.58;;
40256;SDS011;25977;45.462;9.210;2023-12-22T05:18:18;2.78;;;1.85;;
40256;SDS011;25977;45.462;9.210;2023-12-22T05:20:44;2.25;;;1.70;;
40256;SDS011;25977;45.462;9.210;2023-12-22T05:23:10;3.45;;;1.70;;
40256;SDS011;25977;45.462;9.210;2023-12-22T05:25:35;1.67;;;1.58;;
40256;SDS011;25977;45.462;9.210;2023-12-22T05:28:01;4.90;;;2.78;;
40256;SDS011;25977;45.462;9.210;2023-12-22T05:30:27;4.85;;;1.88;;
40256;SDS011;25977;45.462;9.210;2023-12-22T05:32:52;3.42;;;1.60;;
40256;SDS011;25977;45.462;9.210;2023-12-22T05:35:19;1.67;;;1.58;;
40256;SDS011;25977;45.462;9.210;2023-12-22T05:37:45;2.75;;;2.00;;
40256;SDS011;25977;45.462;9.210;2023-12-22T05:40:11;2.00;;;1.83;;
40256;SDS011;25977;45.462;9.210;2023-12-22T05:42:37;2.20;;;2.00;;
40256;SDS011;25977;45.462;9.210;2023-12-22T05:45:02;3.53;;;1.70;;
40256;SDS011;25977;45.462;9.210;2023-12-22T05:47:28;3.72;;;1.83;;
40256;SDS011;25977;45.462;9.210;2023-12-22T05:49:54;1.75;;;1.65;;
40256;SDS011;25977;45.462;9.210;2023-12-22T05:52:20;6.63;;;1.90;;
40256;SDS011;25977;45.462;9.210;2023-12-22T05:54:45;2.40;;;1.77;;
40256;SDS011;25977;45.462;9.210;2023-12-22T05:57:11;3.95;;;1.60;;
40256;SDS011;25977;45.462;9.210;2023-12-22T05:59:37;2.83;;;1.75;;
40256;SDS011;25977;45.462;9.210;2023-12-22T06:02:03;3.92;;;1.70;;
40256;SDS011;25977;45.462;9.210;2023-12-22T06:04:29;2.05;;;1.85;;
40256;SDS011;25977;45.462;9.210;2023-12-22T06:06:54;2.63;;;2.35;;
40256;SDS011;25977;45.462;9.210;2023-12-22T06:09:20;11.82;;;2.45;;
40256;SDS011;25977;45.462;9.210;2023-12-22T06:11:47;2.90;;;2.70;;
40256;SDS011;25977;45.462;9.210;2023-12-22T06:14:13;6.93;;;2.60;;
40256;SDS011;25977;45.462;9.210;2023-12-22T06:16:41;3.60;;;3.15;;
40256;SDS011;25977;45.462;9.210;2023-12-22T06:19:06;2.33;;;2.13;;
40256;SDS011;25977;45.462;9.210;2023-12-22T06:21:32;4.68;;;2.83;;
40256;SDS011;25977;45.462;9.210;2023-12-22T06:23:58;2.85;;;2.65;;
40256;SDS011;25977;45.462;9.210;2023-12-22T06:26:23;4.47;;;2.70;;
40256;SDS011;25977;45.462;9.210;2023-12-22T06:28:49;6.05;;;3.10;;
40256;SDS011;25977;45.462;9.210;2023-12-22T06:31:18;4.53;;;2.55;;
40256;SDS011;25977;45.462;9.210;2023-12-22T06:33:46;3.83;;;2.78;;
40256;SDS011;25977;45.462;9.210;2023-12-22T06:36:24;3.67;;;2.65;;
40256;SDS011;25977;45.462;9.210;2023-12-22T06:38:50;8.32;;;2.88;;
40256;SDS011;25977;45.462;9.210;2023-12-22T06:41:27;7.70;;;3.03;;
40256;SDS011;25977;45.462;9.210;2023-12-22T06:43:56;2.63;;;2.42;;
40256;SDS011;25977;45.462;9.210;2023-12-22T06:46:24;15.10;;;2.55;;
40256;SDS011;25977;45.462;9.210;2023-12-22T06:48:57;4.75;;;2.08;;
40256;SDS011;25977;45.462;9.210;2023-12-22T06:51:27;5.72;;;2.00;;
40256;SDS011;25977;45.462;9.210;2023-12-22T06:54:00;3.03;;;1.55;;
40256;SDS011;25977;45.462;9.210;2023-12-22T06:56:27;4.75;;;1.92;;
40256;SDS011;25977;45.462;9.210;2023-12-22T06:58:54;6.53;;;1.70;;
40256;SDS011;25977;45.462;9.210;2023-12-22T07:01:26;4.15;;;1.80;;
40256;SDS011;25977;45.462;9.210;2023-12-22T07:03:52;14.48;;;3.30;;
40256;SDS011;25977;45.462;9.210;2023-12-22T07:06:18;3.20;;;1.75;;
40256;SDS011;25977;45.462;9.210;2023-12-22T07:11:40;1.45;;;0.77;;
40256;SDS011;25977;45.462;9.210;2023-12-22T07:14:06;0.90;;;0.90;;
40256;SDS011;25977;45.462;9.210;2023-12-22T07:16:34;4.60;;;0.93;;
40256;SDS011;25977;45.462;9.210;2023-12-22T07:19:01;0.73;;;0.70;;
40256;SDS011;25977;45.462;9.210;2023-12-22T07:21:27;0.90;;;0.90;;
40256;SDS011;25977;45.462;9.210;2023-12-22T07:23:53;1.33;;;1.23;;
40256;SDS011;25977;45.462;9.210;2023-12-22T07:26:19;1.45;;;1.00;;
40256;SDS011;25977;45.462;9.210;2023-12-22T07:28:46;1.25;;;0.95;;
40256;SDS011;25977;45.462;9.210;2023-12-22T07:31:13;3.97;;;0.70;;
40256;SDS011;25977;45.462;9.210;2023-12-22T07:33:42;1.05;;;0.80;;
40256;SDS011;25977;45.462;9.210;2023-12-22T07:36:08;8.23;;;1.17;;
40256;SDS011;25977;45.462;9.210;2023-12-22T07:38:34;1.27;;;0.95;;
40256;SDS011;25977;45.462;9.210;2023-12-22T07:40:59;1.85;;;1.00;;
40256;SDS011;25977;45.462;9.210;2023-12-22T07:43:25;4.00;;;1.40;;
40256;SDS011;25977;45.462;9.210;2023-12-22T07:45:51;1.80;;;0.57;;
40256;SDS011;25977;45.462;9.210;2023-12-22T07:48:19;0.88;;;0.60;;
40256;SDS011;25977;45.462;9.210;2023-12-22T07:50:44;0.98;;;0.50;;
40256;SDS011;25977;45.462;9.210;2023-12-22T07:53:10;4.43;;;0.43;;
40256;SDS011;25977;45.462;9.210;2023-12-22T07:55:36;0.52;;;0.52;;
40256;SDS011;25977;45.462;9.210;2023-12-22T07:58:04;0.90;;;0.50;;
40256;SDS011;25977;45.462;9.210;2023-12-22T08:00:30;1.13;;;0.63;;
40256;SDS011;25977;45.462;9.210;2023-12-22T08:02:56;7.53;;;0.50;;
40256;SDS011;25977;45.462;9.210;2023-12-22T08:05:21;4.65;;;0.65;;
40256;SDS011;25977;45.462;9.210;2023-12-22T08:07:48;2.72;;;0.60;;
40256;SDS011;25977;45.462;9.210;2023-12-22T08:10:14;14.55;;;0.90;;
40256;SDS011;25977;45.462;9.210;2023-12-22T08:12:41;2.13;;;0.68;;
40256;SDS011;25977;45.462;9.210;2023-12-22T08:15:07;1.27;;;0.52;;
40256;SDS011;25977;45.462;9.210;2023-12-22T08:17:35;0.35;;;0.30;;
40256;SDS011;25977;45.462;9.210;2023-12-22T08:20:03;3.35;;;0.80;;
40256;SDS011;25977;45.462;9.210;2023-12-22T08:22:29;1.15;;;1.02;;
40256;SDS011;25977;45.462;9.210;2023-12-22T08:24:54;1.92;;;0.60;;
40256;SDS011;25977;45.462;9.210;2023-12-22T08:27:20;0.40;;;0.30;;
40256;SDS011;25977;45.462;9.210;2023-12-22T08:29:46;4.47;;;1.00;;
40256;SDS011;25977;45.462;9.210;2023-12-22T08:32:12;1.45;;;0.93;;
40256;SDS011;25977;45.462;9.210;2023-12-22T08:34:38;13.40;;;1.17;;
40256;SDS011;25977;45.462;9.210;2023-12-22T08:37:04;2.28;;;0.82;;
40256;SDS011;25977;45.462;9.210;2023-12-22T08:39:29;0.70;;;0.50;;
40256;SDS011;25977;45.462;9.210;2023-12-22T08:41:55;3.90;;;0.82;;
40256;SDS011;25977;45.462;9.210;2023-12-22T08:44:20;4.28;;;0.50;;
40256;SDS011;25977;45.462;9.210;2023-12-22T08:46:46;0.60;;;0.52;;
40256;SDS011;25977;45.462;9.210;2023-12-22T08:49:12;2.28;;;0.50;;
40256;SDS011;25977;45.462;9.210;2023-12-22T08:51:37;1.05;;;0.63;;
40256;SDS011;25977;45.462;9.210;2023-12-22T08:54:03;2.72;;;0.68;;
40256;SDS011;25977;45.462;9.210;2023-12-22T08:56:29;0.63;;;0.43;;
40256;SDS011;25977;45.462;9.210;2023-12-22T08:58:55;3.85;;;0.90;;
40256;SDS011;25977;45.462;9.210;2023-12-22T09:01:23;1.60;;;0.40;;
40256;SDS011;25977;45.462;9.210;2023-12-22T09:03:49;6.03;;;0.60;;
40256;SDS011;25977;45.462;9.210;2023-12-22T09:06:19;11.65;;;0.88;;
40256;SDS011;25977;45.462;9.210;2023-12-22T09:08:46;0.43;;;0.40;;
40256;SDS011;25977;45.462;9.210;2023-12-22T09:11:12;0.85;;;0.20;;
40256;SDS011;25977;45.462;9.210;2023-12-22T09:13:40;0.60;;;0.60;;
40256;SDS011;25977;45.462;9.210;2023-12-22T09:16:06;1.58;;;0.60;;
40256;SDS011;25977;45.462;9.210;2023-12-22T09:18:32;3.75;;;0.35;;
40256;SDS011;25977;45.462;9.210;2023-12-22T09:20:58;0.32;;;0.32;;
40256;SDS011;25977;45.462;9.210;2023-12-22T09:23:24;5.00;;;0.43;;
40256;SDS011;25977;45.462;9.210;2023-12-22T09:25:50;0.30;;;0.30;;
40256;SDS011;25977;45.462;9.210;2023-12-22T09:28:16;0.20;;;0.20;;
40256;SDS011;25977;45.462;9.210;2023-12-22T09:30:41;1.67;;;1.10;;
40256;SDS011;25977;45.462;9.210;2023-12-22T09:33:08;0.20;;;0.20;;
40256;SDS011;25977;45.462;9.210;2023-12-22T09:35:34;0.43;;;0.20;;
40256;SDS011;25977;45.462;9.210;2023-12-22T09:38:00;0.28;;;0.22;;
40256;SDS011;25977;45.462;9.210;2023-12-22T09:40:26;1.08;;;0.52;;
40256;SDS011;25977;45.462;9.210;2023-12-22T09:42:55;2.17;;;0.40;;
40256;SDS011;25977;45.462;9.210;2023-12-22T09:45:22;0.80;;;0.52;;
40256;SDS011;25977;45.462;9.210;2023-12-22T09:47:48;2.60;;;0.40;;
40256;SDS011;25977;45.462;9.210;2023-12-22T09:50:17;0.40;;;0.40;;
40256;SDS011;25977;45.462;9.210;2023-12-22T09:52:43;0.63;;;0.45;;
40256;SDS011;25977;45.462;9.210;2023-12-22T09:55:15;0.82;;;0.60;;
40256;SDS011;25977;45.462;9.210;2023-12-22T09:57:42;1.10;;;0.50;;
40256;SDS011;25977;45.462;9.210;2023-12-22T10:00:08;1.85;;;0.60;;
40256;SDS011;25977;45.462;9.210;2023-12-22T10:02:38;2.90;;;0.70;;
40256;SDS011;25977;45.462;9.210;2023-12-22T10:05:04;0.63;;;0.63;;
40256;SDS011;25977;45.462;9.210;2023-12-22T10:07:31;14.82;;;1.00;;
40256;SDS011;25977;45.462;9.210;2023-12-22T10:09:58;1.33;;;0.77;;
40256;SDS011;25977;45.462;9.210;2023-12-22T10:12:26;2.28;;;0.60;;
40256;SDS011;25977;45.462;9.210;2023-12-22T10:14:55;1.05;;;0.95;;
40256;SDS011;25977;45.462;9.210;2023-12-22T10:17:21;1.52;;;0.80;;
40256;SDS011;25977;45.462;9.210;2023-12-22T10:19:48;0.95;;;0.60;;
40256;SDS011;25977;45.462;9.210;2023-12-22T10:22:13;3.28;;;0.80;;
40256;SDS011;25977;45.462;9.210;2023-12-22T10:24:40;0.90;;;0.60;;
40256;SDS011;25977;45.462;9.210;2023-12-22T10:27:13;1.05;;;0.38;;
40256;SDS011;25977;45.462;9.210;2023-12-22T10:29:40;4.95;;;0.80;;
40256;SDS011;25977;45.462;9.210;2023-12-22T10:32:07;0.38;;;0.38;;
40256;SDS011;25977;45.462;9.210;2023-12-22T10:34:36;2.42;;;0.82;;
40256;SDS011;25977;45.462;9.210;2023-12-22T10:37:01;1.45;;;0.50;;
40256;SDS011;25977;45.462;9.210;2023-12-22T10:39:28;2.80;;;0.50;;
40256;SDS011;25977;45.462;9.210;2023-12-22T10:41:54;0.40;;;0.20;;
40256;SDS011;25977;45.462;9.210;2023-12-22T10:44:31;2.80;;;0.32;;
40256;SDS011;25977;45.462;9.210;2023-12-22T10:46:57;0.50;;;0.50;;
40256;SDS011;25977;45.462;9.210;2023-12-22T10:49:23;2.70;;;0.57;;
40256;SDS011;25977;45.462;9.210;2023-12-22T10:51:50;0.40;;;0.40;;
40256;SDS011;25977;45.462;9.210;2023-12-22T10:54:17;0.43;;;0.43;;
40256;SDS011;25977;45.462;9.210;2023-12-22T10:56:43;1.15;;;0.40;;
40256;SDS011;25977;45.462;9.210;2023-12-22T10:59:09;1.88;;;0.63;;
40256;SDS011;25977;45.462;9.210;2023-12-22T11:01:38;0.93;;;0.20;;
40256;SDS011;25977;45.462;9.210;2023-12-22T11:04:07;0.20;;;0.20;;
40256;SDS011;25977;45.462;9.210;2023-12-22T11:06:37;0.22;;;0.20;;
40256;SDS011;25977;45.462;9.210;2023-12-22T11:09:08;0.73;;;0.40;;
40256;SDS011;25977;45.462;9.210;2023-12-22T11:11:34;0.85;;;0.20;;
40256;SDS011;25977;45.462;9.210;2023-12-22T11:14:07;0.43;;;0.40;;
40256;SDS011;25977;45.462;9.210;2023-12-22T11:16:33;0.52;;;0.52;;
40256;SDS011;25977;45.462;9.210;2023-12-22T11:19:03;0.20;;;0.20;;
40256;SDS011;25977;45.462;9.210;2023-12-22T11:21:29;0.20;;;0.20;;
40256;SDS011;25977;45.462;9.210;2023-12-22T11:23:56;1.27;;;0.43;;
40256;SDS011;25977;45.462;9.210;2023-12-22T11:26:23;0.38;;;0.38;;
40256;SDS011;25977;45.462;9.210;2023-12-22T11:28:50;0.40;;;0.40;;
40256;SDS011;25977;45.462;9.210;2023-12-22T11:31:17;0.50;;;0.50;;
40256;SDS011;25977;45.462;9.210;2023-12-22T11:33:44;1.77;;;0.20;;
40256;SDS011;25977;45.462;9.210;2023-12-22T11:36:11;0.38;;;0.30;;
40256;SDS011;25977;45.462;9.210;2023-12-22T11:38:38;0.85;;;0.28;;
40256;SDS011;25977;45.462;9.210;2023-12-22T11:41:18;0.50;;;0.50;;
40256;SDS011;25977;45.462;9.210;2023-12-22T11:43:46;0.30;;;0.13;;
40256;SDS011;25977;45.462;9.210;2023-12-22T11:46:13;0.52;;;0.20;;
40256;SDS011;25977;45.462;9.210;2023-12-22T11:48:48;0.32;;;0.32;;
40256;SDS011;25977;45.462;9.210;2023-12-22T11:51:18;1.67;;;0.65;;
40256;SDS011;25977;45.462;9.210;2023-12-22T11:53:44;2.60;;;0.57;;
40256;SDS011;25977;45.462;9.210;2023-12-22T11:56:10;0.45;;;0.40;;
40256;SDS011;25977;45.462;9.210;2023-12-22T11:58:44;0.10;;;0.10;;
40256;SDS011;25977;45.462;9.210;2023-12-22T12:01:18;7.88;;;0.40;;
40256;SDS011;25977;45.462;9.210;2023-12-22T12:06:25;2.05;;;0.30;;
40256;SDS011;25977;45.462;9.210;2023-12-22T12:08:56;1.55;;;0.32;;
40256;SDS011;25977;45.462;9.210;2023-12-22T12:12:08;1.65;;;0.40;;
40256;SDS011;25977;45.462;9.210;2023-12-22T12:14:16;0.60;;;0.38;;
40256;SDS011;25977;45.462;9.210;2023-12-22T12:16:48;1.95;;;0.68;;
40256;SDS011;25977;45.462;9.210;2023-12-22T12:19:14;1.45;;;0.43;;
40256;SDS011;25977;45.462;9.210;2023-12-22T12:21:40;1.10;;;0.52;;
40256;SDS011;25977;45.462;9.210;2023-12-22T12:24:06;1.50;;;0.70;;
40256;SDS011;25977;45.462;9.210;2023-12-22T12:26:34;1.10;;;0.70;;
40256;SDS011;25977;45.462;9.210;2023-12-22T12:29:00;0.80;;;0.55;;
40256;SDS011;25977;45.462;9.210;2023-12-22T12:31:37;9.55;;;1.13;;
40256;SDS011;25977;45.462;9.210;2023-12-22T12:34:04;0.45;;;0.30;;
40256;SDS011;25977;45.462;9.210;2023-12-22T12:36:30;1.10;;;0.20;;
40256;SDS011;25977;45.462;9.210;2023-12-22T12:39:06;1.90;;;0.40;;
40256;SDS011;25977;45.462;9.210;2023-12-22T12:41:35;5.78;;;0.30;;
40256;SDS011;25977;45.462;9.210;2023-12-22T12:44:04;0.40;;;0.25;;
40256;SDS011;25977;45.462;9.210;2023-12-22T12:46:38;0.50;;;0.13;;
40256;SDS011;25977;45.462;9.210;2023-12-22T12:49:05;0.50;;;0.47;;
40256;SDS011;25977;45.462;9.210;2023-12-22T12:51:37;0.20;;;0.20;;
40256;SDS011;25977;45.462;9.210;2023-12-22T12:54:05;0.47;;;0.47;;
40256;SDS011;25977;45.462;9.210;2023-12-22T13:01:40;1.88;;;0.50;;
40256;SDS011;25977;45.462;9.210;2023-12-22T13:04:06;0.20;;;0.20;;
40256;SDS011;25977;45.462;9.210;2023-12-22T13:06:33;0.85;;;0.55;;
40256;SDS011;25977;45.462;9.210;2023-12-22T13:08:58;1.05;;;0.25;;
40256;SDS011;25977;45.462;9.210;2023-12-22T13:11:28;1.70;;;0.60;;
40256;SDS011;25977;45.462;9.210;2023-12-22T13:13:56;1.33;;;0.38;;
40256;SDS011;25977;45.462;9.210;2023-12-22T13:16:22;1.75;;;0.20;;
40256;SDS011;25977;45.462;9.210;2023-12-22T13:18:54;1.05;;;0.45;;
40256;SDS011;25977;45.462;9.210;2023-12-22T13:21:22;4.07;;;0.85;;
40256;SDS011;25977;45.462;9.210;2023-12-22T13:24:07;2.05;;;0.22;;
40256;SDS011;25977;45.462;9.210;2023-12-22T13:27:02;2.38;;;0.30;;
40256;SDS011;25977;45.462;9.210;2023-12-22T13:29:41;0.20;;;0.20;;
40256;SDS011;25977;45.462;9.210;2023-12-22T13:32:20;1.85;;;0.20;;
40256;SDS011;25977;45.462;9.210;2023-12-22T13:37:19;3.28;;;0.30;;
40256;SDS011;25977;45.462;9.210;2023-12-22T13:39:46;0.25;;;0.22;;
40256;SDS011;25977;45.462;9.210;2023-12-22T13:42:15;0.20;;;0.20;;
40256;SDS011;25977;45.462;9.210;2023-12-22T13:44:44;0.60;;;0.30;;
40256;SDS011;25977;45.462;9.210;2023-12-22T13:47:12;0.60;;;0.20;;
40256;SDS011;25977;45.462;9.210;2023-12-22T13:49:39;0.32;;;0.30;;
40256;SDS011;25977;45.462;9.210;2023-12-22T13:52:06;4.80;;;0.50;;
40256;SDS011;25977;45.462;9.210;2023-12-22T13:54:33;4.28;;;1.08;;
40256;SDS011;25977;45.462;9.210;2023-12-22T13:56:59;1.60;;;0.50;;
40256;SDS011;25977;45.462;9.210;2023-12-22T13:59:32;3.05;;;0.60;;
40256;SDS011;25977;45.462;9.210;2023-12-22T14:04:24;0.80;;;0.30;;
40256;SDS011;25977;45.462;9.210;2023-12-22T14:06:51;0.57;;;0.57;;
40256;SDS011;25977;45.462;9.210;2023-12-22T14:09:16;5.00;;;0.40;;
40256;SDS011;25977;45.462;9.210;2023-12-22T14:11:47;1.60;;;0.57;;
40256;SDS011;25977;45.462;9.210;2023-12-22T14:14:12;0.70;;;0.50;;
40256;SDS011;25977;45.462;9.210;2023-12-22T14:16:38;0.40;;;0.20;;
40256;SDS011;25977;45.462;9.210;2023-12-22T14:19:04;0.55;;;0.30;;
40256;SDS011;25977;45.462;9.210;2023-12-22T14:21:30;5.57;;;0.25;;
40256;SDS011;25977;45.462;9.210;2023-12-22T14:23:55;0.30;;;0.30;;
40256;SDS011;25977;45.462;9.210;2023-12-22T14:26:21;0.45;;;0.40;;
40256;SDS011;25977;45.462;9.210;2023-12-22T14:28:47;0.68;;;0.50;;
40256;SDS011;25977;45.462;9.210;2023-12-22T14:31:16;1.35;;;1.05;;
40256;SDS011;25977;45.462;9.210;2023-12-22T14:33:42;0.93;;;0.60;;
40256;SDS011;25977;45.462;9.210;2023-12-22T14:36:08;0.45;;;0.43;;
40256;SDS011;25977;45.462;9.210;2023-12-22T14:38:33;0.20;;;0.10;;
40256;SDS011;25977;45.462;9.210;2023-12-22T14:40:59;2.78;;;0.25;;
40256;SDS011;25977;45.462;9.210;2023-12-22T14:43:25;1.42;;;0.30;;
40256;SDS011;25977;45.462;9.210;2023-12-22T14:45:51;0.65;;;0.30;;
40256;SDS011;25977;45.462;9.210;2023-12-22T14:48:16;1.17;;;0.57;;
40256;SDS011;25977;45.462;9.210;2023-12-22T14:50:42;1.95;;;0.50;;
40256;SDS011;25977;45.462;9.210;2023-12-22T14:53:07;1.55;;;0.75;;
40256;SDS011;25977;45.462;9.210;2023-12-22T14:55:33;2.25;;;0.40;;
40256;SDS011;25977;45.462;9.210;2023-12-22T14:57:59;1.35;;;0.32;;
40256;SDS011;25977;45.462;9.210;2023-12-22T15:00:25;4.25;;;0.63;;
40256;SDS011;25977;45.462;9.210;2023-12-22T15:02:50;2.28;;;0.80;;